Marietta — WJ6405 — position and weather

sailwx.info

Track history (hours):
 
Tides and Currents Weather Stations Pressure Air Temp Water Temp Dewpoint Dewpoint Depression Visibility Wind Speed Wind Dir Waves Ship Positions

Marietta

Owner: STAR & CRESCENT BOAT CO, SAN DIEGO, CA. More information available from US FCC via Universal Licensing System and Coast Guard Vessel Documentation Center.

Last reported at 2018-Aug-21 03:14 UTC. Time now 2018-Aug-21 04:19 UTC.
Position N 32°42' W 117°10'.

MMSI: 367373960.

Date/timePositionNaut miles runAvg speedWind from/ knotsBaromVisibWave heightAir tempDewpointWater temp
2018-Aug-21 03:14N 32°42' W 117°10'0 0.0
2018-Aug-21 03:00N 32°42' W 117°10'0 0.0
2018-Aug-21 02:29N 32°42' W 117°10'0 0.0
2018-Aug-21 02:03N 32°42' W 117°10'0 0.0
2018-Aug-21 02:00N 32°42' W 117°10'0 0.0
2018-Aug-21 01:26N 32°42' W 117°10'0 0.0
2018-Aug-19 22:31N 32°42' W 117°10'0 0.0
2018-Aug-19 22:30N 32°42' W 117°10'0 0.0
2018-Aug-19 11:48N 32°42' W 117°10'0 0.0
2018-Aug-19 11:30N 32°42' W 117°10'0 0.0
2018-Aug-19 11:00N 32°42' W 117°10'0 0.0
2018-Aug-19 09:33N 32°42' W 117°10'0 0.0
2018-Aug-19 07:21N 32°42' W 117°10'0 0.0
2018-Aug-19 07:00N 32°42' W 117°10'0 0.0
2018-Aug-19 06:30N 32°42' W 117°10'0 0.0
2018-Aug-19 06:00N 32°42' W 117°10'0 0.0
2018-Aug-19 05:26N 32°42' W 117°10'0 0.0
2018-Aug-19 04:39N 32°42' W 117°10'0 0.0
2018-Aug-19 04:25N 32°42' W 117°10'0 0.0
2018-Aug-19 04:00N 32°42' W 117°10'0 0.0
2018-Aug-19 03:03N 32°42' W 117°10'0 0.0
2018-Aug-18 22:22N 32°42' W 117°10'0 0.0
2018-Aug-18 22:00N 32°42' W 117°10'0 0.0
2018-Aug-18 21:28N 32°42' W 117°10'0 0.0
2018-Aug-18 02:04N 32°42' W 117°10'0 4.8
2018-Aug-18 02:00N 32°42' W 117°10'1 1.6
2018-Aug-18 01:30N 32°43' W 117°10'3 6.9
2018-Aug-18 01:00N 32°42' W 117°14'3 5.6
2018-Aug-18 00:24N 32°43' W 117°10'2 5.1
2018-Aug-17 23:58N 32°41' W 117°09'1 2.9
2018-Aug-17 23:29N 32°42' W 117°10'1 1.8
2018-Aug-17 22:58N 32°43' W 117°11'3 6.9
2018-Aug-17 22:30N 32°42' W 117°14'3 6.3
2018-Aug-17 21:59N 32°43' W 117°10'2 3.4
2018-Aug-17 21:30N 32°42' W 117°09'1 1.1
2018-Aug-17 21:00N 32°42' W 117°10'1 2.3
2018-Aug-17 20:29N 32°43' W 117°10'3 5.9
2018-Aug-17 20:00N 32°42' W 117°14'3 4.9
2018-Aug-17 19:25N 32°43' W 117°10'2 4.2
2018-Aug-17 19:00N 32°42' W 117°09'1 2.3
2018-Aug-17 18:25N 32°42' W 117°10'1 1.3
2018-Aug-17 18:00N 32°43' W 117°11'3 6.2
2018-Aug-17 17:30N 32°42' W 117°14'3 6.3
2018-Aug-17 17:00N 32°43' W 117°10'0 0.0
2018-Aug-17 16:30N 32°43' W 117°10'0 0.0
2018-Aug-17 16:00N 32°43' W 117°10'0 0.0
2018-Aug-17 15:30N 32°43' W 117°10'0 0.0
2018-Aug-17 15:00N 32°43' W 117°10'0 0.0
2018-Aug-17 14:00N 32°43' W 117°10'0 0.0
2018-Aug-17 13:30N 32°43' W 117°10'0 0.0
2018-Aug-17 13:00N 32°43' W 117°10'0 0.0
2018-Aug-17 12:30N 32°43' W 117°10'0 0.0
2018-Aug-17 11:59N 32°43' W 117°10'0 0.0
2018-Aug-17 11:30N 32°43' W 117°10'0 0.0
2018-Aug-17 11:00N 32°43' W 117°10'0 0.0
2018-Aug-17 10:30N 32°43' W 117°10'0 0.0
2018-Aug-17 09:59N 32°43' W 117°10'0 0.0
2018-Aug-17 09:30N 32°43' W 117°10'0 0.0
2018-Aug-17 08:59N 32°43' W 117°10'0 0.0
2018-Aug-17 08:30N 32°43' W 117°10'0 0.0
2018-Aug-17 07:58N 32°43' W 117°10'0 0.0
2018-Aug-17 07:28N 32°43' W 117°10'0 0.0
2018-Aug-17 07:00N 32°43' W 117°10'0 0.0
2018-Aug-17 06:30N 32°43' W 117°10'0 0.3
2018-Aug-17 05:59N 32°43' W 117°11'1 0.1
2018-Aug-16 15:02N 32°42' W 117°10'0 5.2
2018-Aug-16 15:00N 32°42' W 117°10'  
2018-Aug-13 22:29N 32°42' W 117°10'0 0.0
2018-Aug-13 21:51N 32°42' W 117°10'0 0.0
2018-Aug-13 12:10N 32°42' W 117°10'0 0.0
2018-Aug-13 11:59N 32°42' W 117°10'0 0.0
2018-Aug-13 11:14N 32°42' W 117°10'0 0.0
2018-Aug-13 10:59N 32°42' W 117°10'0 0.0
2018-Aug-13 10:29N 32°42' W 117°10'0 0.0
2018-Aug-13 09:59N 32°42' W 117°10'0 0.0
2018-Aug-13 05:55N 32°42' W 117°10'0 0.0
2018-Aug-13 05:19N 32°42' W 117°10'0 0.0
2018-Aug-13 04:58N 32°42' W 117°10'0 0.0
2018-Aug-13 00:50N 32°42' W 117°10'0 0.0
2018-Aug-13 00:26N 32°42' W 117°10'0 0.0
2018-Aug-11 07:14N 32°42' W 117°10'0 0.0
2018-Aug-11 06:52N 32°42' W 117°10'  
Track history (hours):
 
Tides and Currents Weather Stations Pressure Air Temp Water Temp Dewpoint Dewpoint Depression Visibility Wind Speed Wind Dir Waves Ship Positions

Marietta

Owner: STAR & CRESCENT BOAT CO, SAN DIEGO, CA. More information available from US FCC via Universal Licensing System and Coast Guard Vessel Documentation Center.

Last reported at 2018-Aug-21 03:14 UTC. Time now 2018-Aug-21 04:19 UTC.
Position N 32°42' W 117°10'.

MMSI: 367373960.

Date/timePositionNaut miles runAvg speedWind from/ knotsBaromVisibWave heightAir tempDewpointWater temp
2018-Aug-21 03:14N 32°42' W 117°10'0 0.0
2018-Aug-21 03:00N 32°42' W 117°10'0 0.0
2018-Aug-21 02:29N 32°42' W 117°10'0 0.0
2018-Aug-21 02:03N 32°42' W 117°10'0 0.0
2018-Aug-21 02:00N 32°42' W 117°10'0 0.0
2018-Aug-21 01:26N 32°42' W 117°10'0 0.0
2018-Aug-19 22:31N 32°42' W 117°10'0 0.0
2018-Aug-19 22:30N 32°42' W 117°10'0 0.0
2018-Aug-19 11:48N 32°42' W 117°10'0 0.0
2018-Aug-19 11:30N 32°42' W 117°10'0 0.0
2018-Aug-19 11:00N 32°42' W 117°10'0 0.0
2018-Aug-19 09:33N 32°42' W 117°10'0 0.0
2018-Aug-19 07:21N 32°42' W 117°10'0 0.0
2018-Aug-19 07:00N 32°42' W 117°10'0 0.0
2018-Aug-19 06:30N 32°42' W 117°10'0 0.0
2018-Aug-19 06:00N 32°42' W 117°10'0 0.0
2018-Aug-19 05:26N 32°42' W 117°10'0 0.0
2018-Aug-19 04:39N 32°42' W 117°10'0 0.0
2018-Aug-19 04:25N 32°42' W 117°10'0 0.0
2018-Aug-19 04:00N 32°42' W 117°10'0 0.0
2018-Aug-19 03:03N 32°42' W 117°10'0 0.0
2018-Aug-18 22:22N 32°42' W 117°10'0 0.0
2018-Aug-18 22:00N 32°42' W 117°10'0 0.0
2018-Aug-18 21:28N 32°42' W 117°10'0 0.0
2018-Aug-18 02:04N 32°42' W 117°10'0 4.8
2018-Aug-18 02:00N 32°42' W 117°10'1 1.6
2018-Aug-18 01:30N 32°43' W 117°10'3 6.9
2018-Aug-18 01:00N 32°42' W 117°14'3 5.6
2018-Aug-18 00:24N 32°43' W 117°10'2 5.1
2018-Aug-17 23:58N 32°41' W 117°09'1 2.9
2018-Aug-17 23:29N 32°42' W 117°10'1 1.8
2018-Aug-17 22:58N 32°43' W 117°11'3 6.9
2018-Aug-17 22:30N 32°42' W 117°14'3 6.3
2018-Aug-17 21:59N 32°43' W 117°10'2 3.4
2018-Aug-17 21:30N 32°42' W 117°09'1 1.1
2018-Aug-17 21:00N 32°42' W 117°10'1 2.3
2018-Aug-17 20:29N 32°43' W 117°10'3 5.9
2018-Aug-17 20:00N 32°42' W 117°14'3 4.9
2018-Aug-17 19:25N 32°43' W 117°10'2 4.2
2018-Aug-17 19:00N 32°42' W 117°09'1 2.3
2018-Aug-17 18:25N 32°42' W 117°10'1 1.3
2018-Aug-17 18:00N 32°43' W 117°11'3 6.2
2018-Aug-17 17:30N 32°42' W 117°14'3 6.3
2018-Aug-17 17:00N 32°43' W 117°10'0 0.0
2018-Aug-17 16:30N 32°43' W 117°10'0 0.0
2018-Aug-17 16:00N 32°43' W 117°10'0 0.0
2018-Aug-17 15:30N 32°43' W 117°10'0 0.0
2018-Aug-17 15:00N 32°43' W 117°10'0 0.0
2018-Aug-17 14:00N 32°43' W 117°10'0 0.0
2018-Aug-17 13:30N 32°43' W 117°10'0 0.0
2018-Aug-17 13:00N 32°43' W 117°10'0 0.0
2018-Aug-17 12:30N 32°43' W 117°10'0 0.0
2018-Aug-17 11:59N 32°43' W 117°10'0 0.0
2018-Aug-17 11:30N 32°43' W 117°10'0 0.0
2018-Aug-17 11:00N 32°43' W 117°10'0 0.0
2018-Aug-17 10:30N 32°43' W 117°10'0 0.0
2018-Aug-17 09:59N 32°43' W 117°10'0 0.0
2018-Aug-17 09:30N 32°43' W 117°10'0 0.0
2018-Aug-17 08:59N 32°43' W 117°10'0 0.0
2018-Aug-17 08:30N 32°43' W 117°10'0 0.0
2018-Aug-17 07:58N 32°43' W 117°10'0 0.0
2018-Aug-17 07:28N 32°43' W 117°10'0 0.0
2018-Aug-17 07:00N 32°43' W 117°10'0 0.0
2018-Aug-17 06:30N 32°43' W 117°10'0 0.3
2018-Aug-17 05:59N 32°43' W 117°11'1 0.1
2018-Aug-16 15:02N 32°42' W 117°10'0 5.2
2018-Aug-16 15:00N 32°42' W 117°10'  
2018-Aug-13 22:29N 32°42' W 117°10'0 0.0
2018-Aug-13 21:51N 32°42' W 117°10'0 0.0
2018-Aug-13 12:10N 32°42' W 117°10'0 0.0
2018-Aug-13 11:59N 32°42' W 117°10'0 0.0
2018-Aug-13 11:14N 32°42' W 117°10'0 0.0
2018-Aug-13 10:59N 32°42' W 117°10'0 0.0
2018-Aug-13 10:29N 32°42' W 117°10'0 0.0
2018-Aug-13 09:59N 32°42' W 117°10'0 0.0
2018-Aug-13 05:55N 32°42' W 117°10'0 0.0
2018-Aug-13 05:19N 32°42' W 117°10'0 0.0
2018-Aug-13 04:58N 32°42' W 117°10'0 0.0
2018-Aug-13 00:50N 32°42' W 117°10'0 0.0
2018-Aug-13 00:26N 32°42' W 117°10'0 0.0
2018-Aug-11 07:14N 32°42' W 117°10'0 0.0
2018-Aug-11 06:52N 32°42' W 117°10'  

Dump ship's entire track history